sensor_id;sensor_type;location;lat;lon;timestamp;temperature;humidity
728;DHT22;347;48.780;9.158;2024-01-30T00:01:38;9.60;17.20
728;DHT22;347;48.780;9.158;2024-01-30T00:04:11;9.40;18.00
728;DHT22;347;48.780;9.158;2024-01-30T00:06:39;9.40;18.50
728;DHT22;347;48.780;9.158;2024-01-30T00:09:08;9.40;18.60
728;DHT22;347;48.780;9.158;2024-01-30T00:11:34;9.40;18.10
728;DHT22;347;48.780;9.158;2024-01-30T00:14:08;9.50;18.00
728;DHT22;347;48.780;9.158;2024-01-30T00:16:34;9.50;17.70
728;DHT22;347;48.780;9.158;2024-01-30T00:18:59;9.50;17.00
728;DHT22;347;48.780;9.158;2024-01-30T00:21:27;9.50;16.90
728;DHT22;347;48.780;9.158;2024-01-30T00:23:53;9.60;16.90
728;DHT22;347;48.780;9.158;2024-01-30T00:26:18;9.50;16.90
728;DHT22;347;48.780;9.158;2024-01-30T00:28:44;9.50;17.10
728;DHT22;347;48.780;9.158;2024-01-30T00:31:10;9.50;17.40
728;DHT22;347;48.780;9.158;2024-01-30T00:33:42;9.50;17.40
728;DHT22;347;48.780;9.158;2024-01-30T00:36:08;9.50;17.50
728;DHT22;347;48.780;9.158;2024-01-30T00:38:34;9.40;17.50
728;DHT22;347;48.780;9.158;2024-01-30T00:41:00;9.40;17.60
728;DHT22;347;48.780;9.158;2024-01-30T00:43:27;9.30;18.40
728;DHT22;347;48.780;9.158;2024-01-30T00:45:53;9.30;18.20
728;DHT22;347;48.780;9.158;2024-01-30T00:48:27;9.30;18.00
728;DHT22;347;48.780;9.158;2024-01-30T00:50:52;9.40;18.00
728;DHT22;347;48.780;9.158;2024-01-30T00:53:20;9.40;17.80
728;DHT22;347;48.780;9.158;2024-01-30T00:55:46;9.20;18.40
728;DHT22;347;48.780;9.158;2024-01-30T00:58:12;9.20;18.50
728;DHT22;347;48.780;9.158;2024-01-30T01:00:37;9.20;18.40
728;DHT22;347;48.780;9.158;2024-01-30T01:03:03;9.10;18.60
728;DHT22;347;48.780;9.158;2024-01-30T01:05:28;9.00;19.00
728;DHT22;347;48.780;9.158;2024-01-30T01:07:54;8.80;19.30
728;DHT22;347;48.780;9.158;2024-01-30T01:10:20;8.90;19.50
728;DHT22;347;48.780;9.158;2024-01-30T01:12:46;8.90;19.30
728;DHT22;347;48.780;9.158;2024-01-30T01:15:12;9.00;19.20
728;DHT22;347;48.780;9.158;2024-01-30T01:17:38;9.20;19.00
728;DHT22;347;48.780;9.158;2024-01-30T01:20:05;9.20;18.70
728;DHT22;347;48.780;9.158;2024-01-30T01:22:31;9.20;18.50
728;DHT22;347;48.780;9.158;2024-01-30T01:24:56;9.30;18.40
728;DHT22;347;48.780;9.158;2024-01-30T01:27:22;9.30;18.30
728;DHT22;347;48.780;9.158;2024-01-30T01:29:47;9.30;18.40
728;DHT22;347;48.780;9.158;2024-01-30T01:32:13;9.40;18.40
728;DHT22;347;48.780;9.158;2024-01-30T01:34:38;9.30;18.50
728;DHT22;347;48.780;9.158;2024-01-30T01:37:04;9.10;18.90
728;DHT22;347;48.780;9.158;2024-01-30T01:39:29;8.80;19.50
728;DHT22;347;48.780;9.158;2024-01-30T01:41:55;8.70;19.90
728;DHT22;347;48.780;9.158;2024-01-30T01:44:20;8.70;20.10
728;DHT22;347;48.780;9.158;2024-01-30T01:46:46;8.80;20.00
728;DHT22;347;48.780;9.158;2024-01-30T01:49:13;8.70;19.80
728;DHT22;347;48.780;9.158;2024-01-30T01:51:40;8.60;20.30
728;DHT22;347;48.780;9.158;2024-01-30T01:54:06;8.70;20.20
728;DHT22;347;48.780;9.158;2024-01-30T01:56:33;8.80;19.90
728;DHT22;347;48.780;9.158;2024-01-30T01:59:05;8.90;19.70
728;DHT22;347;48.780;9.158;2024-01-30T02:01:33;9.00;19.60
728;DHT22;347;48.780;9.158;2024-01-30T02:03:59;9.10;19.50
728;DHT22;347;48.780;9.158;2024-01-30T02:06:25;9.10;19.30
728;DHT22;347;48.780;9.158;2024-01-30T02:08:51;9.10;19.40
728;DHT22;347;48.780;9.158;2024-01-30T02:11:17;9.00;19.40
728;DHT22;347;48.780;9.158;2024-01-30T02:13:43;9.10;19.40
728;DHT22;347;48.780;9.158;2024-01-30T02:16:08;9.10;19.30
728;DHT22;347;48.780;9.158;2024-01-30T02:18:34;9.10;19.30
728;DHT22;347;48.780;9.158;2024-01-30T02:21:04;9.10;19.20
728;DHT22;347;48.780;9.158;2024-01-30T02:23:30;9.10;19.20
728;DHT22;347;48.780;9.158;2024-01-30T02:25:58;8.80;19.50
728;DHT22;347;48.780;9.158;2024-01-30T02:28:24;8.30;20.70
728;DHT22;347;48.780;9.158;2024-01-30T02:30:49;8.20;21.60
728;DHT22;347;48.780;9.158;2024-01-30T02:33:15;8.30;21.30
728;DHT22;347;48.780;9.158;2024-01-30T02:35:41;8.50;21.00
728;DHT22;347;48.780;9.158;2024-01-30T02:38:06;8.60;20.70
728;DHT22;347;48.780;9.158;2024-01-30T02:40:32;8.70;20.50
728;DHT22;347;48.780;9.158;2024-01-30T02:42:59;8.80;20.30
728;DHT22;347;48.780;9.158;2024-01-30T02:45:25;8.80;20.10
728;DHT22;347;48.780;9.158;2024-01-30T02:47:51;8.80;20.10
728;DHT22;347;48.780;9.158;2024-01-30T02:50:16;8.90;20.00
728;DHT22;347;48.780;9.158;2024-01-30T02:52:43;8.90;19.90
728;DHT22;347;48.780;9.158;2024-01-30T02:55:09;9.00;19.80
728;DHT22;347;48.780;9.158;2024-01-30T02:57:35;9.00;19.70
728;DHT22;347;48.780;9.158;2024-01-30T03:00:01;9.00;19.80
728;DHT22;347;48.780;9.158;2024-01-30T03:02:26;9.00;19.70
728;DHT22;347;48.780;9.158;2024-01-30T03:04:51;9.00;19.50
728;DHT22;347;48.780;9.158;2024-01-30T03:07:17;9.00;20.10
728;DHT22;347;48.780;9.158;2024-01-30T03:09:43;8.90;19.80
728;DHT22;347;48.780;9.158;2024-01-30T03:12:09;8.90;19.90
728;DHT22;347;48.780;9.158;2024-01-30T03:14:34;8.90;19.90
728;DHT22;347;48.780;9.158;2024-01-30T03:17:00;9.00;19.80
728;DHT22;347;48.780;9.158;2024-01-30T03:19:25;9.00;19.60
728;DHT22;347;48.780;9.158;2024-01-30T03:21:51;9.00;19.50
728;DHT22;347;48.780;9.158;2024-01-30T03:24:17;9.00;19.50
728;DHT22;347;48.780;9.158;2024-01-30T03:26:43;9.10;19.40
728;DHT22;347;48.780;9.158;2024-01-30T03:29:09;9.00;19.40
728;DHT22;347;48.780;9.158;2024-01-30T03:31:34;9.00;19.50
728;DHT22;347;48.780;9.158;2024-01-30T03:34:00;9.00;19.50
728;DHT22;347;48.780;9.158;2024-01-30T03:36:26;9.00;19.50
728;DHT22;347;48.780;9.158;2024-01-30T03:38:51;9.00;19.50
728;DHT22;347;48.780;9.158;2024-01-30T03:41:17;9.00;19.50
728;DHT22;347;48.780;9.158;2024-01-30T03:43:43;9.00;19.40
728;DHT22;347;48.780;9.158;2024-01-30T03:46:08;9.00;19.40
728;DHT22;347;48.780;9.158;2024-01-30T03:48:34;9.00;19.30
728;DHT22;347;48.780;9.158;2024-01-30T03:50:59;9.00;19.30
728;DHT22;347;48.780;9.158;2024-01-30T03:53:25;9.00;19.20
728;DHT22;347;48.780;9.158;2024-01-30T03:55:51;9.00;19.20
728;DHT22;347;48.780;9.158;2024-01-30T03:58:16;9.00;19.30
728;DHT22;347;48.780;9.158;2024-01-30T04:00:42;8.90;19.20
728;DHT22;347;48.780;9.158;2024-01-30T04:03:07;8.90;19.10
728;DHT22;347;48.780;9.158;2024-01-30T04:05:33;8.90;19.10
728;DHT22;347;48.780;9.158;2024-01-30T04:07:59;8.90;19.10
728;DHT22;347;48.780;9.158;2024-01-30T04:10:24;8.90;19.30
728;DHT22;347;48.780;9.158;2024-01-30T04:12:51;8.90;19.40
728;DHT22;347;48.780;9.158;2024-01-30T04:15:17;8.90;19.20
728;DHT22;347;48.780;9.158;2024-01-30T04:17:43;9.00;19.20
728;DHT22;347;48.780;9.158;2024-01-30T04:20:13;9.00;19.20
728;DHT22;347;48.780;9.158;2024-01-30T04:22:39;9.10;19.00
728;DHT22;347;48.780;9.158;2024-01-30T04:25:05;9.10;18.80
728;DHT22;347;48.780;9.158;2024-01-30T04:27:31;9.30;18.60
728;DHT22;347;48.780;9.158;2024-01-30T04:29:56;9.20;18.30
728;DHT22;347;48.780;9.158;2024-01-30T04:32:22;9.00;18.90
728;DHT22;347;48.780;9.158;2024-01-30T04:34:47;9.00;19.30
728;DHT22;347;48.780;9.158;2024-01-30T04:37:13;8.90;19.30
728;DHT22;347;48.780;9.158;2024-01-30T04:39:38;8.90;19.40
728;DHT22;347;48.780;9.158;2024-01-30T04:42:04;9.00;19.10
728;DHT22;347;48.780;9.158;2024-01-30T04:44:30;9.10;18.70
728;DHT22;347;48.780;9.158;2024-01-30T04:46:55;9.30;18.60
728;DHT22;347;48.780;9.158;2024-01-30T04:49:24;9.40;18.40
728;DHT22;347;48.780;9.158;2024-01-30T04:51:49;9.40;18.20
728;DHT22;347;48.780;9.158;2024-01-30T04:54:15;9.50;18.10
728;DHT22;347;48.780;9.158;2024-01-30T04:56:40;9.50;18.00
728;DHT22;347;48.780;9.158;2024-01-30T04:59:06;9.50;17.80
728;DHT22;347;48.780;9.158;2024-01-30T05:01:34;9.50;17.60
728;DHT22;347;48.780;9.158;2024-01-30T05:03:59;9.60;18.30
728;DHT22;347;48.780;9.158;2024-01-30T05:06:27;9.40;18.10
728;DHT22;347;48.780;9.158;2024-01-30T05:08:53;9.40;18.00
728;DHT22;347;48.780;9.158;2024-01-30T05:11:18;9.40;17.70
728;DHT22;347;48.780;9.158;2024-01-30T05:13:44;9.40;17.70
728;DHT22;347;48.780;9.158;2024-01-30T05:16:09;9.50;17.60
728;DHT22;347;48.780;9.158;2024-01-30T05:18:35;9.50;17.30
728;DHT22;347;48.780;9.158;2024-01-30T05:21:02;9.50;17.40
728;DHT22;347;48.780;9.158;2024-01-30T05:23:28;9.50;17.40
728;DHT22;347;48.780;9.158;2024-01-30T05:25:53;9.40;17.50
728;DHT22;347;48.780;9.158;2024-01-30T05:28:19;9.40;17.60
728;DHT22;347;48.780;9.158;2024-01-30T05:30:44;9.40;17.60
728;DHT22;347;48.780;9.158;2024-01-30T05:33:10;9.40;17.60
728;DHT22;347;48.780;9.158;2024-01-30T05:35:37;9.30;17.70
728;DHT22;347;48.780;9.158;2024-01-30T05:38:03;9.30;17.60
728;DHT22;347;48.780;9.158;2024-01-30T05:40:29;9.20;18.00
728;DHT22;347;48.780;9.158;2024-01-30T05:42:55;9.20;18.50
728;DHT22;347;48.780;9.158;2024-01-30T05:45:21;9.20;18.10
728;DHT22;347;48.780;9.158;2024-01-30T05:47:48;9.20;18.20
728;DHT22;347;48.780;9.158;2024-01-30T05:50:14;9.10;18.20
728;DHT22;347;48.780;9.158;2024-01-30T05:52:40;9.20;18.40
728;DHT22;347;48.780;9.158;2024-01-30T05:55:05;9.10;18.30
728;DHT22;347;48.780;9.158;2024-01-30T05:57:31;9.10;18.40
728;DHT22;347;48.780;9.158;2024-01-30T05:59:57;9.10;18.60
728;DHT22;347;48.780;9.158;2024-01-30T06:02:22;9.10;18.60
728;DHT22;347;48.780;9.158;2024-01-30T06:04:50;9.10;18.60
728;DHT22;347;48.780;9.158;2024-01-30T06:07:16;9.10;18.50
728;DHT22;347;48.780;9.158;2024-01-30T06:09:42;9.10;18.40
728;DHT22;347;48.780;9.158;2024-01-30T06:12:08;9.10;18.40
728;DHT22;347;48.780;9.158;2024-01-30T06:14:34;9.00;18.50
728;DHT22;347;48.780;9.158;2024-01-30T06:17:00;9.00;18.60
728;DHT22;347;48.780;9.158;2024-01-30T06:19:25;9.00;18.60
728;DHT22;347;48.780;9.158;2024-01-30T06:21:51;9.00;18.70
728;DHT22;347;48.780;9.158;2024-01-30T06:24:16;9.00;18.60
728;DHT22;347;48.780;9.158;2024-01-30T06:26:42;9.00;18.40
728;DHT22;347;48.780;9.158;2024-01-30T06:29:08;9.00;18.50
728;DHT22;347;48.780;9.158;2024-01-30T06:31:39;9.00;18.50
728;DHT22;347;48.780;9.158;2024-01-30T06:34:05;9.00;18.60
728;DHT22;347;48.780;9.158;2024-01-30T06:36:30;9.00;18.60
728;DHT22;347;48.780;9.158;2024-01-30T06:38:56;9.00;18.70
728;DHT22;347;48.780;9.158;2024-01-30T06:41:21;8.90;18.80
728;DHT22;347;48.780;9.158;2024-01-30T06:43:47;8.90;18.90
728;DHT22;347;48.780;9.158;2024-01-30T06:46:12;8.90;19.00
728;DHT22;347;48.780;9.158;2024-01-30T06:48:38;8.90;19.10
728;DHT22;347;48.780;9.158;2024-01-30T06:51:05;8.90;19.00
728;DHT22;347;48.780;9.158;2024-01-30T06:53:31;8.90;18.90
728;DHT22;347;48.780;9.158;2024-01-30T06:55:56;8.90;19.00
728;DHT22;347;48.780;9.158;2024-01-30T06:58:22;8.90;18.90
728;DHT22;347;48.780;9.158;2024-01-30T07:00:47;8.90;19.00
728;DHT22;347;48.780;9.158;2024-01-30T07:03:13;8.90;19.00
728;DHT22;347;48.780;9.158;2024-01-30T07:05:39;8.80;18.90
728;DHT22;347;48.780;9.158;2024-01-30T07:08:04;8.80;18.90
728;DHT22;347;48.780;9.158;2024-01-30T07:10:30;8.80;19.10
728;DHT22;347;48.780;9.158;2024-01-30T07:12:56;8.80;19.10
728;DHT22;347;48.780;9.158;2024-01-30T07:15:22;8.80;19.20
728;DHT22;347;48.780;9.158;2024-01-30T07:17:48;8.80;19.20
728;DHT22;347;48.780;9.158;2024-01-30T07:20:13;8.80;19.10
728;DHT22;347;48.780;9.158;2024-01-30T07:22:40;8.80;19.10
728;DHT22;347;48.780;9.158;2024-01-30T07:25:06;8.90;19.10
728;DHT22;347;48.780;9.158;2024-01-30T07:27:31;8.80;19.00
728;DHT22;347;48.780;9.158;2024-01-30T07:29:57;8.80;19.10
728;DHT22;347;48.780;9.158;2024-01-30T07:32:22;8.80;19.10
728;DHT22;347;48.780;9.158;2024-01-30T07:34:49;8.80;19.00
728;DHT22;347;48.780;9.158;2024-01-30T07:37:14;8.80;19.10
728;DHT22;347;48.780;9.158;2024-01-30T07:39:41;8.80;19.20
728;DHT22;347;48.780;9.158;2024-01-30T07:42:07;8.80;19.00
728;DHT22;347;48.780;9.158;2024-01-30T07:44:33;8.80;19.10
728;DHT22;347;48.780;9.158;2024-01-30T07:46:58;8.80;19.30
728;DHT22;347;48.780;9.158;2024-01-30T07:49:25;8.80;19.20
728;DHT22;347;48.780;9.158;2024-01-30T07:51:50;8.80;19.10
728;DHT22;347;48.780;9.158;2024-01-30T07:54:16;8.80;19.00
728;DHT22;347;48.780;9.158;2024-01-30T07:56:42;8.90;19.10
728;DHT22;347;48.780;9.158;2024-01-30T07:59:11;8.90;18.90
728;DHT22;347;48.780;9.158;2024-01-30T08:01:38;8.90;18.90
728;DHT22;347;48.780;9.158;2024-01-30T08:04:03;8.90;18.90
728;DHT22;347;48.780;9.158;2024-01-30T08:06:29;8.90;18.80
728;DHT22;347;48.780;9.158;2024-01-30T08:08:54;9.00;18.90
728;DHT22;347;48.780;9.158;2024-01-30T08:11:21;9.00;18.90
728;DHT22;347;48.780;9.158;2024-01-30T08:13:52;9.00;18.80
728;DHT22;347;48.780;9.158;2024-01-30T08:16:18;9.10;18.90
728;DHT22;347;48.780;9.158;2024-01-30T08:18:43;9.10;18.70
728;DHT22;347;48.780;9.158;2024-01-30T08:21:09;9.10;18.40
728;DHT22;347;48.780;9.158;2024-01-30T08:23:35;9.10;18.60
728;DHT22;347;48.780;9.158;2024-01-30T08:26:00;9.10;18.40
728;DHT22;347;48.780;9.158;2024-01-30T08:28:26;9.20;18.40
728;DHT22;347;48.780;9.158;2024-01-30T08:30:52;9.20;18.40
728;DHT22;347;48.780;9.158;2024-01-30T08:33:17;9.20;18.40
728;DHT22;347;48.780;9.158;2024-01-30T08:35:43;9.20;18.00
728;DHT22;347;48.780;9.158;2024-01-30T08:38:09;9.00;19.00
728;DHT22;347;48.780;9.158;2024-01-30T08:47:29;9.20;19.70
728;DHT22;347;48.780;9.158;2024-01-30T08:49:54;9.30;19.50
728;DHT22;347;48.780;9.158;2024-01-30T08:52:20;9.40;19.10
728;DHT22;347;48.780;9.158;2024-01-30T08:54:45;9.50;18.70
728;DHT22;347;48.780;9.158;2024-01-30T08:57:11;9.40;18.40
728;DHT22;347;48.780;9.158;2024-01-30T08:59:36;9.20;18.60
728;DHT22;347;48.780;9.158;2024-01-30T09:02:02;9.00;18.70
728;DHT22;347;48.780;9.158;2024-01-30T09:04:28;9.10;18.80
728;DHT22;347;48.780;9.158;2024-01-30T09:06:54;9.10;18.90
728;DHT22;347;48.780;9.158;2024-01-30T09:09:20;9.10;18.50
728;DHT22;347;48.780;9.158;2024-01-30T09:11:48;9.00;18.90
728;DHT22;347;48.780;9.158;2024-01-30T09:14:13;9.10;18.90
728;DHT22;347;48.780;9.158;2024-01-30T09:16:39;9.20;18.80
728;DHT22;347;48.780;9.158;2024-01-30T09:19:15;9.40;18.80
728;DHT22;347;48.780;9.158;2024-01-30T09:21:42;9.40;18.00
728;DHT22;347;48.780;9.158;2024-01-30T09:24:21;9.50;17.80
728;DHT22;347;48.780;9.158;2024-01-30T09:26:48;9.50;18.30
728;DHT22;347;48.780;9.158;2024-01-30T09:29:52;9.60;18.20
728;DHT22;347;48.780;9.158;2024-01-30T09:32:18;9.70;18.10
728;DHT22;347;48.780;9.158;2024-01-30T09:34:44;9.90;17.90
728;DHT22;347;48.780;9.158;2024-01-30T09:37:09;9.90;17.50
728;DHT22;347;48.780;9.158;2024-01-30T09:39:35;10.00;16.40
728;DHT22;347;48.780;9.158;2024-01-30T09:42:48;10.00;16.60
728;DHT22;347;48.780;9.158;2024-01-30T09:45:17;10.10;16.50
728;DHT22;347;48.780;9.158;2024-01-30T09:47:52;10.20;16.20
728;DHT22;347;48.780;9.158;2024-01-30T09:50:20;10.20;16.20
728;DHT22;347;48.780;9.158;2024-01-30T09:52:47;9.90;17.30
728;DHT22;347;48.780;9.158;2024-01-30T09:58:57;9.80;17.50
728;DHT22;347;48.780;9.158;2024-01-30T10:02:01;9.80;17.80
728;DHT22;347;48.780;9.158;2024-01-30T10:04:48;10.00;16.60
728;DHT22;347;48.780;9.158;2024-01-30T10:07:14;10.10;16.20
728;DHT22;347;48.780;9.158;2024-01-30T10:09:40;10.20;16.10
728;DHT22;347;48.780;9.158;2024-01-30T10:12:06;10.20;16.10
728;DHT22;347;48.780;9.158;2024-01-30T10:14:32;10.30;16.70
728;DHT22;347;48.780;9.158;2024-01-30T10:16:58;10.30;16.20
728;DHT22;347;48.780;9.158;2024-01-30T10:19:24;10.40;16.00
728;DHT22;347;48.780;9.158;2024-01-30T10:22:03;10.50;16.00
728;DHT22;347;48.780;9.158;2024-01-30T10:24:29;10.60;16.00
728;DHT22;347;48.780;9.158;2024-01-30T10:26:55;10.60;15.70
728;DHT22;347;48.780;9.158;2024-01-30T10:29:21;10.50;15.60
728;DHT22;347;48.780;9.158;2024-01-30T10:32:01;10.50;16.50
728;DHT22;347;48.780;9.158;2024-01-30T10:34:27;10.50;16.30
728;DHT22;347;48.780;9.158;2024-01-30T10:37:07;10.50;16.10
728;DHT22;347;48.780;9.158;2024-01-30T10:39:37;10.60;16.40
728;DHT22;347;48.780;9.158;2024-01-30T10:42:05;10.60;16.40
728;DHT22;347;48.780;9.158;2024-01-30T10:44:37;10.60;16.40
728;DHT22;347;48.780;9.158;2024-01-30T10:47:07;10.60;16.00
728;DHT22;347;48.780;9.158;2024-01-30T10:49:36;10.70;15.40
728;DHT22;347;48.780;9.158;2024-01-30T10:52:04;10.80;15.50
728;DHT22;347;48.780;9.158;2024-01-30T10:54:31;10.90;15.80
728;DHT22;347;48.780;9.158;2024-01-30T10:57:00;11.00;15.60
728;DHT22;347;48.780;9.158;2024-01-30T10:59:27;11.10;15.70
728;DHT22;347;48.780;9.158;2024-01-30T11:01:53;11.10;15.40
728;DHT22;347;48.780;9.158;2024-01-30T11:04:19;11.20;15.10
728;DHT22;347;48.780;9.158;2024-01-30T11:06:45;11.30;15.00
728;DHT22;347;48.780;9.158;2024-01-30T11:09:17;11.40;15.00
728;DHT22;347;48.780;9.158;2024-01-30T11:11:56;11.20;14.90
728;DHT22;347;48.780;9.158;2024-01-30T11:14:26;11.10;15.60
728;DHT22;347;48.780;9.158;2024-01-30T11:16:52;11.20;15.20
728;DHT22;347;48.780;9.158;2024-01-30T11:19:30;11.30;15.80
728;DHT22;347;48.780;9.158;2024-01-30T11:21:56;11.40;15.00
728;DHT22;347;48.780;9.158;2024-01-30T11:24:25;11.50;15.00
728;DHT22;347;48.780;9.158;2024-01-30T11:26:58;11.50;14.60
728;DHT22;347;48.780;9.158;2024-01-30T11:29:27;11.50;15.20
728;DHT22;347;48.780;9.158;2024-01-30T11:31:54;11.40;14.70
728;DHT22;347;48.780;9.158;2024-01-30T11:34:21;11.50;15.30
728;DHT22;347;48.780;9.158;2024-01-30T11:36:59;11.60;15.20
728;DHT22;347;48.780;9.158;2024-01-30T11:39:28;11.60;14.90
728;DHT22;347;48.780;9.158;2024-01-30T11:41:55;11.60;14.50
728;DHT22;347;48.780;9.158;2024-01-30T11:47:48;11.70;15.20
728;DHT22;347;48.780;9.158;2024-01-30T11:50:15;11.80;15.10
728;DHT22;347;48.780;9.158;2024-01-30T11:52:41;11.70;14.80
728;DHT22;347;48.780;9.158;2024-01-30T11:55:12;11.80;14.60
728;DHT22;347;48.780;9.158;2024-01-30T11:57:40;11.80;14.50
728;DHT22;347;48.780;9.158;2024-01-30T12:00:24;11.90;14.80
728;DHT22;347;48.780;9.158;2024-01-30T12:02:54;12.00;14.70
728;DHT22;347;48.780;9.158;2024-01-30T12:05:24;12.00;14.90
728;DHT22;347;48.780;9.158;2024-01-30T12:07:50;12.00;14.90
728;DHT22;347;48.780;9.158;2024-01-30T12:10:16;12.10;15.10
728;DHT22;347;48.780;9.158;2024-01-30T12:12:47;11.90;14.00
728;DHT22;347;48.780;9.158;2024-01-30T12:15:14;11.80;14.90
728;DHT22;347;48.780;9.158;2024-01-30T12:17:40;11.90;14.50
728;DHT22;347;48.780;9.158;2024-01-30T12:20:07;11.80;14.60
728;DHT22;347;48.780;9.158;2024-01-30T12:22:37;11.90;14.60
728;DHT22;347;48.780;9.158;2024-01-30T12:25:10;11.80;14.50
728;DHT22;347;48.780;9.158;2024-01-30T12:27:37;11.90;15.10
728;DHT22;347;48.780;9.158;2024-01-30T12:30:08;11.80;15.20
728;DHT22;347;48.780;9.158;2024-01-30T12:32:41;11.90;15.40
728;DHT22;347;48.780;9.158;2024-01-30T12:35:10;11.90;15.40
728;DHT22;347;48.780;9.158;2024-01-30T12:37:36;11.90;15.40
728;DHT22;347;48.780;9.158;2024-01-30T12:40:02;11.90;15.40
728;DHT22;347;48.780;9.158;2024-01-30T12:42:29;12.00;15.40
728;DHT22;347;48.780;9.158;2024-01-30T12:44:57;12.10;15.40
728;DHT22;347;48.780;9.158;2024-01-30T12:47:22;12.20;15.10
728;DHT22;347;48.780;9.158;2024-01-30T12:49:48;12.20;14.70
728;DHT22;347;48.780;9.158;2024-01-30T12:52:16;12.20;15.00
728;DHT22;347;48.780;9.158;2024-01-30T12:54:41;12.30;14.70
728;DHT22;347;48.780;9.158;2024-01-30T12:57:07;12.30;15.00
728;DHT22;347;48.780;9.158;2024-01-30T12:59:32;12.30;14.80
728;DHT22;347;48.780;9.158;2024-01-30T13:02:00;12.40;14.90
728;DHT22;347;48.780;9.158;2024-01-30T13:04:26;12.40;14.90
728;DHT22;347;48.780;9.158;2024-01-30T13:06:52;12.40;14.90
728;DHT22;347;48.780;9.158;2024-01-30T13:09:18;12.50;14.80
728;DHT22;347;48.780;9.158;2024-01-30T13:11:43;12.50;14.60
728;DHT22;347;48.780;9.158;2024-01-30T13:14:09;12.50;14.50
728;DHT22;347;48.780;9.158;2024-01-30T13:16:34;12.60;14.50
728;DHT22;347;48.780;9.158;2024-01-30T13:19:00;12.60;14.40
728;DHT22;347;48.780;9.158;2024-01-30T13:21:27;12.40;14.30
728;DHT22;347;48.780;9.158;2024-01-30T13:23:53;12.30;14.30
728;DHT22;347;48.780;9.158;2024-01-30T13:26:20;12.40;14.60
728;DHT22;347;48.780;9.158;2024-01-30T13:28:46;12.40;15.00
728;DHT22;347;48.780;9.158;2024-01-30T13:31:12;12.50;14.70
728;DHT22;347;48.780;9.158;2024-01-30T13:33:38;12.50;14.70
728;DHT22;347;48.780;9.158;2024-01-30T13:36:03;12.60;14.90
728;DHT22;347;48.780;9.158;2024-01-30T13:38:29;12.50;14.60
728;DHT22;347;48.780;9.158;2024-01-30T13:40:55;12.50;14.30
728;DHT22;347;48.780;9.158;2024-01-30T13:43:20;12.50;14.90
728;DHT22;347;48.780;9.158;2024-01-30T13:45:46;12.60;14.50
728;DHT22;347;48.780;9.158;2024-01-30T13:48:11;12.60;14.60
728;DHT22;347;48.780;9.158;2024-01-30T13:50:37;12.70;14.30
728;DHT22;347;48.780;9.158;2024-01-30T13:53:03;12.70;14.10
728;DHT22;347;48.780;9.158;2024-01-30T13:55:29;12.80;14.10
728;DHT22;347;48.780;9.158;2024-01-30T13:57:55;12.80;14.20
728;DHT22;347;48.780;9.158;2024-01-30T14:00:22;12.80;13.80
728;DHT22;347;48.780;9.158;2024-01-30T14:02:48;12.90;13.90
728;DHT22;347;48.780;9.158;2024-01-30T14:05:14;12.90;13.70
728;DHT22;347;48.780;9.158;2024-01-30T14:07:40;12.90;13.60
728;DHT22;347;48.780;9.158;2024-01-30T14:10:09;12.90;13.40
728;DHT22;347;48.780;9.158;2024-01-30T14:12:36;13.00;13.30
728;DHT22;347;48.780;9.158;2024-01-30T14:15:02;13.00;13.30
728;DHT22;347;48.780;9.158;2024-01-30T14:17:27;13.00;13.20
728;DHT22;347;48.780;9.158;2024-01-30T14:19:53;13.00;13.20
728;DHT22;347;48.780;9.158;2024-01-30T14:22:18;13.10;13.70
728;DHT22;347;48.780;9.158;2024-01-30T14:24:44;13.10;13.60
728;DHT22;347;48.780;9.158;2024-01-30T14:27:10;13.20;13.40
728;DHT22;347;48.780;9.158;2024-01-30T14:29:35;13.10;12.90
728;DHT22;347;48.780;9.158;2024-01-30T14:32:01;13.20;12.80
728;DHT22;347;48.780;9.158;2024-01-30T14:34:27;13.20;12.80
728;DHT22;347;48.780;9.158;2024-01-30T14:36:52;13.20;12.90
728;DHT22;347;48.780;9.158;2024-01-30T14:39:18;13.20;13.10
728;DHT22;347;48.780;9.158;2024-01-30T14:41:44;13.20;13.10
728;DHT22;347;48.780;9.158;2024-01-30T14:44:09;13.20;13.10
728;DHT22;347;48.780;9.158;2024-01-30T14:46:36;13.10;13.10
728;DHT22;347;48.780;9.158;2024-01-30T14:49:02;13.20;12.80
728;DHT22;347;48.780;9.158;2024-01-30T14:51:31;13.20;12.80
728;DHT22;347;48.780;9.158;2024-01-30T14:53:56;13.20;13.50
728;DHT22;347;48.780;9.158;2024-01-30T14:56:22;13.10;13.60
728;DHT22;347;48.780;9.158;2024-01-30T14:58:48;13.00;13.60
728;DHT22;347;48.780;9.158;2024-01-30T15:01:14;13.10;13.70
728;DHT22;347;48.780;9.158;2024-01-30T15:03:39;13.00;14.00
728;DHT22;347;48.780;9.158;2024-01-30T15:06:06;13.00;14.30
728;DHT22;347;48.780;9.158;2024-01-30T15:08:31;13.00;14.00
728;DHT22;347;48.780;9.158;2024-01-30T15:10:58;13.00;14.10
728;DHT22;347;48.780;9.158;2024-01-30T15:13:24;13.00;13.40
728;DHT22;347;48.780;9.158;2024-01-30T15:15:49;13.00;13.10
728;DHT22;347;48.780;9.158;2024-01-30T15:18:15;13.00;13.70
728;DHT22;347;48.780;9.158;2024-01-30T15:20:40;13.00;14.00
728;DHT22;347;48.780;9.158;2024-01-30T15:23:06;13.00;14.00
728;DHT22;347;48.780;9.158;2024-01-30T15:25:31;13.00;13.40
728;DHT22;347;48.780;9.158;2024-01-30T15:27:57;13.00;13.70
728;DHT22;347;48.780;9.158;2024-01-30T15:30:22;12.90;13.70
728;DHT22;347;48.780;9.158;2024-01-30T15:32:48;12.90;13.50
728;DHT22;347;48.780;9.158;2024-01-30T15:35:14;12.90;13.50
728;DHT22;347;48.780;9.158;2024-01-30T15:37:39;12.90;13.60
728;DHT22;347;48.780;9.158;2024-01-30T15:40:05;12.90;14.10
728;DHT22;347;48.780;9.158;2024-01-30T15:42:32;12.80;14.30
728;DHT22;347;48.780;9.158;2024-01-30T15:44:57;12.80;14.30
728;DHT22;347;48.780;9.158;2024-01-30T15:47:24;12.80;14.70
728;DHT22;347;48.780;9.158;2024-01-30T15:49:50;12.80;14.80
728;DHT22;347;48.780;9.158;2024-01-30T15:52:15;12.80;14.90
728;DHT22;347;48.780;9.158;2024-01-30T15:54:43;12.80;15.20
728;DHT22;347;48.780;9.158;2024-01-30T15:57:08;12.70;15.40
728;DHT22;347;48.780;9.158;2024-01-30T15:59:34;12.70;15.40
728;DHT22;347;48.780;9.158;2024-01-30T16:01:59;12.60;15.60
728;DHT22;347;48.780;9.158;2024-01-30T16:04:25;12.60;15.90
728;DHT22;347;48.780;9.158;2024-01-30T16:06:50;12.50;16.00
728;DHT22;347;48.780;9.158;2024-01-30T16:09:16;12.50;16.10
728;DHT22;347;48.780;9.158;2024-01-30T16:11:42;12.50;16.60
728;DHT22;347;48.780;9.158;2024-01-30T16:14:08;12.40;16.50
728;DHT22;347;48.780;9.158;2024-01-30T16:16:34;12.40;16.60
728;DHT22;347;48.780;9.158;2024-01-30T16:19:00;12.50;16.60
728;DHT22;347;48.780;9.158;2024-01-30T16:21:26;12.40;16.90
728;DHT22;347;48.780;9.158;2024-01-30T16:23:51;12.40;16.60
728;DHT22;347;48.780;9.158;2024-01-30T16:26:19;12.50;16.60
728;DHT22;347;48.780;9.158;2024-01-30T16:28:45;12.50;16.60
728;DHT22;347;48.780;9.158;2024-01-30T16:31:10;12.50;16.60
728;DHT22;347;48.780;9.158;2024-01-30T16:33:36;12.60;16.70
728;DHT22;347;48.780;9.158;2024-01-30T16:36:01;12.60;16.80
728;DHT22;347;48.780;9.158;2024-01-30T16:38:27;12.60;17.40
728;DHT22;347;48.780;9.158;2024-01-30T16:40:52;12.60;16.90
728;DHT22;347;48.780;9.158;2024-01-30T16:43:18;12.60;16.90
728;DHT22;347;48.780;9.158;2024-01-30T16:45:44;12.60;16.70
728;DHT22;347;48.780;9.158;2024-01-30T16:48:10;12.60;16.70
728;DHT22;347;48.780;9.158;2024-01-30T16:50:40;12.60;16.70
728;DHT22;347;48.780;9.158;2024-01-30T16:53:05;12.60;16.70
728;DHT22;347;48.780;9.158;2024-01-30T16:55:31;12.60;17.00